createdAt,value
2022-10-07T00:00:46.323Z,3.50
2022-10-07T00:03:13.195Z,3.00
2022-10-07T00:05:40.000Z,2.97
2022-10-07T00:08:07.161Z,3.50
2022-10-07T00:10:41.499Z,3.20
2022-10-07T00:13:09.906Z,3.40
2022-10-07T00:15:36.805Z,3.30
2022-10-07T00:18:03.669Z,3.20
2022-10-07T00:20:38.242Z,3.50
2022-10-07T00:23:05.750Z,2.90
2022-10-07T00:25:35.721Z,2.80
2022-10-07T00:28:03.471Z,3.00
2022-10-07T00:30:30.295Z,2.80
2022-10-07T00:32:57.057Z,3.43
2022-10-07T00:35:24.020Z,2.83
2022-10-07T00:37:53.857Z,2.80
2022-10-07T00:40:20.683Z,2.97
2022-10-07T00:42:47.414Z,3.67
2022-10-07T00:45:16.858Z,3.07
2022-10-07T00:47:49.036Z,2.80
2022-10-07T00:50:25.369Z,2.97
2022-10-07T00:52:54.788Z,3.17
2022-10-07T00:55:24.135Z,3.00
2022-10-07T00:57:53.396Z,3.03
2022-10-07T01:00:23.525Z,3.27
2022-10-07T01:02:51.084Z,2.97
2022-10-07T01:05:18.516Z,3.63
2022-10-07T01:07:47.431Z,3.03
2022-10-07T01:10:18.790Z,3.33
2022-10-07T01:12:48.417Z,3.70
2022-10-07T01:15:53.994Z,3.20
2022-10-07T01:18:26.515Z,2.60
2022-10-07T01:20:57.958Z,3.37
2022-10-07T01:23:40.458Z,2.83
2022-10-07T01:26:34.618Z,2.80
2022-10-07T01:29:05.083Z,3.10
2022-10-07T01:31:37.873Z,2.80
2022-10-07T01:34:06.314Z,3.30
2022-10-07T01:36:34.417Z,2.97
2022-10-07T01:39:03.678Z,2.73
2022-10-07T01:41:31.574Z,3.13
2022-10-07T01:43:59.664Z,3.30
2022-10-07T01:46:27.671Z,2.60
2022-10-07T01:49:02.027Z,2.93
2022-10-07T01:51:30.239Z,2.53
2022-10-07T01:53:56.717Z,3.40
2022-10-07T01:56:51.958Z,2.60
2022-10-07T01:59:50.617Z,2.83
2022-10-07T02:02:41.592Z,3.20
2022-10-07T02:05:27.238Z,2.60
2022-10-07T02:08:15.517Z,2.80
2022-10-07T02:11:04.646Z,2.70
2022-10-07T02:13:39.407Z,2.90
2022-10-07T02:16:21.709Z,2.67
2022-10-07T02:18:52.262Z,2.93
2022-10-07T02:21:22.764Z,2.70
2022-10-07T02:23:53.208Z,3.33
2022-10-07T02:26:21.613Z,3.77
2022-10-07T02:28:52.016Z,2.80
2022-10-07T02:31:23.611Z,3.37
2022-10-07T02:33:53.237Z,2.73
2022-10-07T02:36:25.379Z,2.73
2022-10-07T02:38:52.718Z,2.63
2022-10-07T02:41:36.664Z,2.70
2022-10-07T02:44:29.751Z,3.00
2022-10-07T02:47:01.478Z,3.50
2022-10-07T02:49:29.239Z,3.17
2022-10-07T02:52:08.247Z,2.60
2022-10-07T02:54:39.646Z,3.00
2022-10-07T02:57:06.864Z,2.47
2022-10-07T02:59:34.338Z,2.53
2022-10-07T03:02:02.885Z,2.77
2022-10-07T03:04:29.709Z,3.10
2022-10-07T03:06:58.777Z,2.73
2022-10-07T03:09:25.963Z,2.70
2022-10-07T03:11:52.624Z,2.50
2022-10-07T03:14:19.348Z,2.70
2022-10-07T03:16:46.384Z,2.63
2022-10-07T03:19:12.994Z,3.00
2022-10-07T03:21:43.308Z,3.03
2022-10-07T03:24:11.378Z,2.67
2022-10-07T03:26:43.222Z,2.57
2022-10-07T03:29:12.043Z,2.80
2022-10-07T03:31:41.267Z,2.40
2022-10-07T03:34:09.693Z,2.90
2022-10-07T03:36:36.926Z,2.80
2022-10-07T03:39:05.334Z,2.90
2022-10-07T03:41:33.304Z,2.43
2022-10-07T03:44:01.618Z,2.60
2022-10-07T03:46:31.964Z,2.83
2022-10-07T03:48:58.688Z,2.80
2022-10-07T03:51:26.102Z,2.90
2022-10-07T03:53:58.394Z,2.70
2022-10-07T03:56:29.383Z,2.83
2022-10-07T03:58:56.094Z,2.83
2022-10-07T04:01:24.243Z,2.43
2022-10-07T04:03:55.803Z,2.33
2022-10-07T04:06:23.384Z,3.50
2022-10-07T04:08:55.327Z,3.00
2022-10-07T04:11:24.373Z,3.30
2022-10-07T04:13:53.726Z,3.20
2022-10-07T04:16:23.247Z,2.67
2022-10-07T04:18:54.711Z,3.03
2022-10-07T04:21:21.812Z,2.83
2022-10-07T04:23:48.502Z,2.77
2022-10-07T04:26:15.329Z,2.50
2022-10-07T04:28:46.098Z,3.10
2022-10-07T04:31:17.949Z,2.63
2022-10-07T04:33:47.412Z,2.47
2022-10-07T04:36:19.874Z,2.70
2022-10-07T04:39:01.106Z,2.70
2022-10-07T04:41:32.122Z,2.50
2022-10-07T04:43:59.664Z,2.53
2022-10-07T04:46:30.715Z,2.67
2022-10-07T04:49:03.766Z,2.53
2022-10-07T04:51:31.157Z,2.33
2022-10-07T04:53:59.441Z,2.83
2022-10-07T04:56:33.304Z,3.10
2022-10-07T04:59:02.331Z,3.20
2022-10-07T05:01:29.625Z,3.30
2022-10-07T05:03:58.013Z,3.03
2022-10-07T05:06:26.210Z,2.57
2022-10-07T05:08:54.269Z,2.90
2022-10-07T05:11:22.232Z,2.90
2022-10-07T05:13:58.389Z,2.70
2022-10-07T05:16:25.907Z,2.83
2022-10-07T05:18:52.584Z,3.03
2022-10-07T05:21:19.232Z,2.77
2022-10-07T05:23:47.622Z,3.63
2022-10-07T05:26:19.706Z,2.53
2022-10-07T05:28:50.819Z,3.07
2022-10-07T05:31:25.864Z,2.77
2022-10-07T05:33:56.415Z,2.70
2022-10-07T05:36:24.971Z,2.87
2022-10-07T05:38:58.082Z,2.60
2022-10-07T05:41:29.728Z,2.60
2022-10-07T05:43:57.388Z,2.60
2022-10-07T05:46:25.272Z,3.00
2022-10-07T05:48:55.836Z,3.20
2022-10-07T05:51:26.708Z,3.50
2022-10-07T05:53:58.498Z,3.00
2022-10-07T05:56:32.302Z,2.70
2022-10-07T05:58:59.242Z,3.10
2022-10-07T06:01:28.429Z,3.27
2022-10-07T06:03:57.331Z,2.67
2022-10-07T06:06:26.687Z,2.90
2022-10-07T06:09:16.056Z,2.50
2022-10-07T06:12:04.031Z,3.03
2022-10-07T06:14:32.340Z,3.00
2022-10-07T06:17:00.259Z,3.10
2022-10-07T06:19:27.631Z,2.93
2022-10-07T06:21:58.220Z,3.03
2022-10-07T06:24:25.391Z,3.10
2022-10-07T06:26:55.357Z,2.80
2022-10-07T06:29:23.605Z,2.80
2022-10-07T06:31:55.093Z,3.30
2022-10-07T06:34:21.775Z,3.00
2022-10-07T06:36:50.887Z,3.40
2022-10-07T06:39:18.048Z,3.13
2022-10-07T06:41:46.815Z,2.93
2022-10-07T06:44:36.555Z,2.83
2022-10-07T06:47:06.661Z,2.80
2022-10-07T06:49:36.549Z,3.60
2022-10-07T06:52:03.250Z,2.70
2022-10-07T06:54:31.124Z,2.97
2022-10-07T06:56:57.999Z,2.83
2022-10-07T06:59:24.667Z,2.80
2022-10-07T07:02:07.018Z,2.70
2022-10-07T07:04:34.689Z,3.00
2022-10-07T07:07:02.260Z,3.07
2022-10-07T07:09:29.351Z,3.50
2022-10-07T07:11:56.561Z,2.67
2022-10-07T07:14:27.339Z,2.80
2022-10-07T07:17:02.334Z,2.47
2022-10-07T07:19:30.109Z,2.90
2022-10-07T07:21:57.065Z,3.57
2022-10-07T07:24:31.893Z,3.57
2022-10-07T07:26:59.021Z,3.60
2022-10-07T07:29:28.964Z,4.10
2022-10-07T07:32:00.209Z,4.10
2022-10-07T07:34:30.271Z,2.63
2022-10-07T07:36:57.355Z,4.10
2022-10-07T07:39:31.443Z,3.60
2022-10-07T07:42:08.774Z,3.00
2022-10-07T07:44:37.707Z,3.00
2022-10-07T07:47:08.685Z,2.70
2022-10-07T07:49:36.062Z,3.00
2022-10-07T07:52:04.226Z,3.33
2022-10-07T07:54:37.582Z,2.80
2022-10-07T07:57:04.529Z,3.30
2022-10-07T07:59:34.215Z,3.17
2022-10-07T08:02:01.231Z,2.87
2022-10-07T08:04:29.497Z,2.80
2022-10-07T08:06:56.553Z,3.03
2022-10-07T08:09:24.456Z,3.40
2022-10-07T08:11:52.550Z,2.80
2022-10-07T08:14:19.282Z,2.30
2022-10-07T08:16:49.511Z,2.83
2022-10-07T08:19:16.192Z,2.83
2022-10-07T08:21:42.851Z,2.80
2022-10-07T08:24:14.834Z,2.77
2022-10-07T08:26:41.591Z,2.50
2022-10-07T08:29:11.869Z,2.87
2022-10-07T08:31:38.637Z,3.00
2022-10-07T08:34:06.409Z,2.90
2022-10-07T08:36:33.743Z,3.33
2022-10-07T08:39:01.729Z,2.70
2022-10-07T08:41:34.273Z,2.80
2022-10-07T08:44:17.030Z,2.30
2022-10-07T08:47:01.120Z,2.70
2022-10-07T08:49:43.476Z,2.60
2022-10-07T08:52:28.347Z,3.23
2022-10-07T08:54:55.231Z,2.60
2022-10-07T08:58:06.625Z,2.90
2022-10-07T09:00:50.675Z,2.90
2022-10-07T09:03:25.367Z,2.70
2022-10-07T09:05:53.132Z,2.80
2022-10-07T09:08:30.870Z,2.77
2022-10-07T09:11:04.561Z,2.73
2022-10-07T09:13:35.799Z,3.30
2022-10-07T09:16:13.269Z,2.77
2022-10-07T09:18:50.706Z,2.53
2022-10-07T09:21:23.643Z,2.43
2022-10-07T09:23:57.680Z,3.40
2022-10-07T09:26:26.455Z,2.97
2022-10-07T09:28:53.052Z,2.80
2022-10-07T09:31:22.494Z,2.90
2022-10-07T09:33:50.564Z,3.70
2022-10-07T09:36:19.012Z,2.43
2022-10-07T09:38:50.335Z,2.60
2022-10-07T09:41:16.876Z,2.60
2022-10-07T09:43:49.473Z,2.20
2022-10-07T09:46:47.782Z,2.73
2022-10-07T09:49:29.867Z,2.43
2022-10-07T09:52:07.116Z,2.60
2022-10-07T09:54:35.500Z,2.53
2022-10-07T09:57:04.309Z,2.60
2022-10-07T09:59:35.748Z,2.37
2022-10-07T10:02:18.055Z,2.90
2022-10-07T10:04:56.155Z,2.33
2022-10-07T10:07:28.244Z,2.30
2022-10-07T10:09:57.148Z,2.13
2022-10-07T10:12:25.626Z,2.70
2022-10-07T10:14:53.162Z,2.40
2022-10-07T10:17:42.458Z,2.33
2022-10-07T10:20:24.271Z,2.53
2022-10-07T10:22:52.089Z,2.27
2022-10-07T10:26:17.760Z,2.70
2022-10-07T10:28:58.594Z,2.10
2022-10-07T10:31:53.509Z,2.47
2022-10-07T10:34:39.240Z,2.97
2022-10-07T10:37:14.754Z,2.60
2022-10-07T10:39:57.617Z,2.10
2022-10-07T10:42:45.453Z,2.80
2022-10-07T10:45:18.290Z,2.40
2022-10-07T10:48:01.230Z,2.80
2022-10-07T10:50:32.424Z,2.50
2022-10-07T10:53:29.380Z,2.57
2022-10-07T10:56:17.385Z,2.27
2022-10-07T10:59:09.371Z,2.10
2022-10-07T11:01:39.052Z,3.00
2022-10-07T11:04:08.569Z,2.23
2022-10-07T11:06:37.467Z,2.23
2022-10-07T11:09:05.904Z,2.27
2022-10-07T11:11:34.109Z,2.70
2022-10-07T11:14:09.435Z,2.27
2022-10-07T11:16:48.592Z,2.33
2022-10-07T11:19:22.138Z,2.43
2022-10-07T11:21:51.005Z,2.37
2022-10-07T11:24:20.902Z,2.17
2022-10-07T11:26:51.435Z,2.60
2022-10-07T11:29:39.885Z,2.60
2022-10-07T11:32:23.139Z,2.57
2022-10-07T11:35:17.931Z,2.97
2022-10-07T11:37:52.654Z,2.60
2022-10-07T11:40:19.874Z,2.37
2022-10-07T11:42:49.959Z,2.70
2022-10-07T11:45:20.476Z,2.30
2022-10-07T11:47:50.813Z,2.53
2022-10-07T11:50:23.826Z,2.40
2022-10-07T11:52:53.770Z,2.30
2022-10-07T11:55:24.838Z,2.30
2022-10-07T11:57:59.025Z,2.17
2022-10-07T12:00:29.792Z,2.40
2022-10-07T12:02:57.826Z,2.30
2022-10-07T12:05:50.139Z,2.07
2022-10-07T12:08:33.279Z,3.00
2022-10-07T12:11:15.549Z,2.70
2022-10-07T12:13:53.117Z,3.27
2022-10-07T12:16:30.129Z,2.07
2022-10-07T12:19:12.810Z,2.60
2022-10-07T12:22:00.581Z,2.53
2022-10-07T12:24:28.099Z,2.20
2022-10-07T12:27:25.844Z,2.60
2022-10-07T12:30:02.422Z,2.00
2022-10-07T12:32:45.461Z,2.70
2022-10-07T12:35:34.609Z,1.80
2022-10-07T12:38:23.497Z,2.20
2022-10-07T12:41:10.804Z,2.60
2022-10-07T12:43:37.389Z,2.20
2022-10-07T12:46:06.490Z,2.80
2022-10-07T12:48:40.134Z,2.20
2022-10-07T12:51:19.280Z,2.87
2022-10-07T12:53:47.627Z,2.40
2022-10-07T12:56:21.385Z,2.40
2022-10-07T12:59:28.601Z,2.40
2022-10-07T13:02:01.329Z,2.30
2022-10-07T13:05:09.789Z,3.10
2022-10-07T13:08:00.982Z,2.70
2022-10-07T13:10:48.182Z,2.00
2022-10-07T13:13:26.236Z,2.00
2022-10-07T13:16:10.899Z,2.20
2022-10-07T13:18:54.905Z,2.23
2022-10-07T13:21:32.429Z,2.33
2022-10-07T13:23:59.073Z,1.97
2022-10-07T13:26:26.795Z,2.30
2022-10-07T13:29:00.334Z,2.40
2022-10-07T13:31:32.779Z,2.10
2022-10-07T13:34:01.230Z,2.53
2022-10-07T13:36:29.718Z,2.67
2022-10-07T13:39:18.024Z,2.17
2022-10-07T13:41:47.480Z,2.20
2022-10-07T13:44:18.556Z,2.50
2022-10-07T13:46:58.099Z,2.30
2022-10-07T13:49:27.839Z,2.40
2022-10-07T13:51:59.465Z,2.70
2022-10-07T13:54:28.418Z,2.20
2022-10-07T13:56:55.394Z,2.77
2022-10-07T13:59:22.595Z,2.47
2022-10-07T14:01:52.012Z,2.10
2022-10-07T14:04:31.261Z,2.53
2022-10-07T14:07:13.034Z,2.50
2022-10-07T14:09:44.562Z,2.30
2022-10-07T14:12:17.256Z,2.00
2022-10-07T14:14:46.471Z,2.60
2022-10-07T14:17:26.374Z,2.23
2022-10-07T14:19:55.649Z,2.23
2022-10-07T14:22:36.735Z,2.10
2022-10-07T14:25:06.039Z,2.20
2022-10-07T14:27:39.892Z,2.77
2022-10-07T14:30:55.584Z,2.00
2022-10-07T14:34:04.665Z,2.07
2022-10-07T14:36:31.333Z,2.20
2022-10-07T14:39:03.296Z,3.03
2022-10-07T14:41:31.146Z,2.20
2022-10-07T14:44:00.126Z,2.60
2022-10-07T14:46:28.375Z,2.60
2022-10-07T14:48:55.277Z,2.33
2022-10-07T14:51:27.004Z,2.57
2022-10-07T14:53:56.912Z,2.90
2022-10-07T14:56:31.335Z,2.93
2022-10-07T14:58:58.004Z,2.20
2022-10-07T15:01:25.460Z,2.23
2022-10-07T15:03:52.773Z,2.50
2022-10-07T15:06:20.214Z,2.50
2022-10-07T15:08:49.548Z,2.00
2022-10-07T15:11:18.639Z,2.70
2022-10-07T15:13:49.285Z,2.13
2022-10-07T15:16:21.805Z,2.20
2022-10-07T15:18:52.439Z,2.17
2022-10-07T15:21:20.972Z,2.17
2022-10-07T15:23:54.021Z,2.63
2022-10-07T15:26:24.202Z,2.83
2022-10-07T15:29:01.807Z,3.33
2022-10-07T15:31:30.089Z,2.80
2022-10-07T15:33:57.823Z,2.03
2022-10-07T15:36:26.334Z,2.47
2022-10-07T15:38:55.861Z,2.63
2022-10-07T15:41:48.949Z,2.50
2022-10-07T15:44:18.271Z,2.93
2022-10-07T15:46:46.306Z,2.33
2022-10-07T15:49:13.406Z,2.50
2022-10-07T15:51:40.239Z,3.60
2022-10-07T15:54:07.011Z,2.77
2022-10-07T15:56:34.187Z,2.77
2022-10-07T15:59:02.138Z,2.67
2022-10-07T16:01:31.959Z,2.30
2022-10-07T16:04:00.346Z,2.47
2022-10-07T16:06:31.379Z,2.10
2022-10-07T16:09:01.626Z,2.80
2022-10-07T16:11:29.171Z,2.10
2022-10-07T16:13:55.992Z,2.97
2022-10-07T16:16:24.933Z,2.50
2022-10-07T16:18:53.638Z,2.40
2022-10-07T16:21:27.911Z,2.30
2022-10-07T16:24:23.466Z,2.43
2022-10-07T16:26:50.770Z,2.37
2022-10-07T16:29:38.588Z,2.70
2022-10-07T16:32:06.099Z,2.40
2022-10-07T16:34:32.677Z,2.90
2022-10-07T16:36:59.348Z,2.40
2022-10-07T16:39:26.105Z,2.40
2022-10-07T16:41:53.001Z,2.23
2022-10-07T16:44:20.186Z,2.30
2022-10-07T16:46:47.651Z,2.90
2022-10-07T16:49:16.763Z,2.33
2022-10-07T16:51:44.731Z,2.60
2022-10-07T16:54:14.698Z,2.13
2022-10-07T16:56:46.497Z,2.87
2022-10-07T16:59:16.456Z,2.40
2022-10-07T17:01:46.911Z,2.83
2022-10-07T17:04:13.598Z,2.90
2022-10-07T17:06:40.318Z,2.47
2022-10-07T17:09:09.561Z,2.77
2022-10-07T17:11:37.182Z,2.60
2022-10-07T17:14:07.322Z,3.13
2022-10-07T17:16:39.657Z,2.73
2022-10-07T17:19:07.048Z,3.13
2022-10-07T17:21:36.150Z,2.90
2022-10-07T17:24:03.527Z,3.07
2022-10-07T17:26:32.107Z,2.73
2022-10-07T17:29:02.233Z,2.83
2022-10-07T17:31:30.373Z,2.60
2022-10-07T17:33:57.925Z,2.57
2022-10-07T17:36:25.591Z,2.50
2022-10-07T17:38:52.216Z,2.83
2022-10-07T17:41:26.967Z,2.00
2022-10-07T17:43:55.955Z,3.40
2022-10-07T17:46:23.836Z,2.60
2022-10-07T17:48:52.765Z,3.00
2022-10-07T17:51:20.802Z,2.70
2022-10-07T17:53:50.396Z,2.50
2022-10-07T17:56:17.520Z,2.57
2022-10-07T17:58:46.212Z,2.40
2022-10-07T18:01:27.012Z,2.70
2022-10-07T18:03:58.731Z,3.03
2022-10-07T18:06:31.506Z,3.23
2022-10-07T18:09:04.431Z,2.60
2022-10-07T18:11:50.463Z,2.87
2022-10-07T18:14:35.828Z,2.80
2022-10-07T18:17:02.574Z,2.63
2022-10-07T18:19:29.660Z,3.10
2022-10-07T18:21:56.836Z,2.73
2022-10-07T18:24:27.619Z,2.60
2022-10-07T18:26:59.384Z,3.30
2022-10-07T18:29:31.536Z,2.67
2022-10-07T18:31:58.959Z,2.70
2022-10-07T18:34:25.800Z,2.97
2022-10-07T18:36:56.852Z,2.70
2022-10-07T18:39:29.863Z,2.60
2022-10-07T18:41:57.419Z,3.20
2022-10-07T18:44:26.686Z,2.80
2022-10-07T18:46:53.436Z,2.53
2022-10-07T18:49:20.051Z,3.07
2022-10-07T18:51:47.307Z,2.50
2022-10-07T18:54:14.147Z,2.70
2022-10-07T18:56:41.688Z,2.70
2022-10-07T18:59:09.804Z,2.77
2022-10-07T19:01:37.341Z,3.23
2022-10-07T19:04:05.642Z,2.57
2022-10-07T19:06:35.463Z,2.80
2022-10-07T19:09:05.873Z,3.00
2022-10-07T19:11:32.638Z,2.97
2022-10-07T19:13:59.581Z,3.13
2022-10-07T19:16:34.477Z,2.70
2022-10-07T19:19:03.490Z,2.50
2022-10-07T19:21:30.681Z,2.90
2022-10-07T19:23:58.753Z,2.80
2022-10-07T19:26:27.806Z,3.00
2022-10-07T19:28:54.874Z,3.10
2022-10-07T19:31:27.154Z,2.77
2022-10-07T19:34:01.351Z,3.10
2022-10-07T19:36:33.653Z,2.90
2022-10-07T19:39:01.170Z,3.83
2022-10-07T19:41:37.067Z,3.23
2022-10-07T19:44:04.036Z,3.30
2022-10-07T19:46:32.361Z,2.67
2022-10-07T19:49:04.732Z,2.60
2022-10-07T19:51:34.676Z,2.90
2022-10-07T19:54:09.786Z,3.00
2022-10-07T19:56:37.022Z,3.30
2022-10-07T19:59:13.746Z,3.07
2022-10-07T20:01:42.547Z,3.27
2022-10-07T20:04:15.111Z,2.93
2022-10-07T20:06:42.884Z,3.10
2022-10-07T20:09:12.730Z,3.10
2022-10-07T20:11:39.506Z,3.30
2022-10-07T20:14:06.669Z,3.33
2022-10-07T20:16:34.614Z,3.43
2022-10-07T20:19:05.404Z,3.20
2022-10-07T20:21:34.656Z,3.63
2022-10-07T20:24:01.598Z,3.37
2022-10-07T20:26:32.679Z,3.40
2022-10-07T20:29:01.033Z,3.20
2022-10-07T20:31:33.573Z,3.10
2022-10-07T20:34:01.619Z,3.00
2022-10-07T20:36:33.296Z,3.30
2022-10-07T20:39:19.537Z,3.40
2022-10-07T20:42:08.523Z,3.50
2022-10-07T20:44:36.874Z,3.40
2022-10-07T20:47:08.421Z,3.23
2022-10-07T20:49:37.385Z,3.20
2022-10-07T20:52:17.222Z,3.13
2022-10-07T20:54:47.553Z,3.90
2022-10-07T20:57:16.629Z,2.83
2022-10-07T20:59:47.786Z,3.37
2022-10-07T21:02:16.949Z,3.43
2022-10-07T21:04:43.985Z,3.93
2022-10-07T21:07:10.773Z,3.67
2022-10-07T21:09:37.560Z,3.60
2022-10-07T21:12:07.247Z,3.17
2022-10-07T21:14:35.045Z,3.63
2022-10-07T21:17:02.270Z,2.87
2022-10-07T21:19:30.333Z,3.43
2022-10-07T21:21:57.371Z,5.20
2022-10-07T21:24:24.289Z,3.50
2022-10-07T21:26:51.139Z,3.50
2022-10-07T21:29:19.072Z,3.40
2022-10-07T21:31:46.124Z,4.07
2022-10-07T21:34:12.754Z,3.60
2022-10-07T21:36:41.510Z,4.50
2022-10-07T21:39:08.084Z,4.20
2022-10-07T21:41:35.890Z,3.83
2022-10-07T21:44:04.378Z,3.67
2022-10-07T21:46:31.948Z,3.87
2022-10-07T21:48:58.794Z,5.00
2022-10-07T21:51:32.415Z,3.70
2022-10-07T21:53:59.110Z,3.70
2022-10-07T21:56:28.637Z,3.43
2022-10-07T21:58:57.205Z,3.67
2022-10-07T22:01:26.641Z,3.50
2022-10-07T22:04:04.480Z,4.03
2022-10-07T22:06:50.266Z,4.10
2022-10-07T22:09:21.193Z,4.37
2022-10-07T22:11:49.132Z,4.63
2022-10-07T22:14:17.258Z,4.60
2022-10-07T22:16:45.037Z,5.00
2022-10-07T22:19:12.163Z,5.50
2022-10-07T22:21:40.441Z,4.47
2022-10-07T22:24:08.415Z,4.40
2022-10-07T22:26:53.375Z,4.10
2022-10-07T22:29:21.635Z,3.87
2022-10-07T22:31:48.683Z,4.07
2022-10-07T22:34:33.883Z,3.87
2022-10-07T22:37:00.645Z,3.90
2022-10-07T22:39:28.745Z,3.80
2022-10-07T22:41:55.890Z,3.80
2022-10-07T22:44:22.560Z,3.77
2022-10-07T22:46:50.044Z,3.70
2022-10-07T22:49:16.825Z,3.90
2022-10-07T22:51:43.608Z,3.70
2022-10-07T22:54:13.784Z,3.80
2022-10-07T22:56:40.678Z,3.97
2022-10-07T22:59:08.717Z,3.53
2022-10-07T23:01:35.844Z,4.10
2022-10-07T23:04:03.311Z,4.40
2022-10-07T23:06:34.525Z,4.07
2022-10-07T23:09:03.824Z,3.60
2022-10-07T23:11:31.099Z,3.63
2022-10-07T23:13:58.029Z,3.50
2022-10-07T23:16:29.778Z,3.77
2022-10-07T23:18:56.852Z,3.40
2022-10-07T23:21:28.193Z,3.50
2022-10-07T23:24:01.721Z,3.37
2022-10-07T23:26:33.372Z,3.53
2022-10-07T23:29:01.300Z,3.63
2022-10-07T23:31:29.206Z,3.73
2022-10-07T23:33:57.503Z,3.17
2022-10-07T23:36:25.479Z,3.43
2022-10-07T23:38:56.756Z,3.73
2022-10-07T23:41:25.895Z,3.70
2022-10-07T23:43:54.838Z,3.23
2022-10-07T23:46:22.757Z,3.47
2022-10-07T23:48:50.502Z,4.00
2022-10-07T23:51:21.497Z,3.80
2022-10-07T23:53:48.484Z,4.30
2022-10-07T23:56:15.543Z,3.57
2022-10-07T23:58:44.423Z,3.30
